Andersonville, Indiana
Current Conditions -  °F | °C
As of 1:55 AM on Sunday 26 Oct 2014 (Local Time) from KI67 Reporting Station
Clear Clear  
Wind Chill: 16°   Ceiling: Unl
Heat Index: 16°   Visibility: 10mi
Dew Point:   Wind: 5mph
Humidity: 36%   Direction: 320°NW
Pressure: 29.95"   Gusts: NA
Location:  39.4846°N, 85.1967°W
Report Text: KI67 260555Z AUTO 32004KT 10SM CLR 16/01 A2995 RMK AO1
Loading
Personal Weather Stations






























Interactive Weather Map
Tropical Storm Tracking
New forecast layout! Learn more

10-Day Weather Forecast

Advertisements
Track Severe Weather on mobile